• Join FlightAware (Why Join?)
  • Login
  • US Flag 
10:46PM EDT


 

Airport Tracker/Info


-or-


 

Live Flight TrackerFlight Track Log ✈ CTL16 ✈ 05-Jul-2013 ✈ I68 - KBKL

Flight Track Log - Related Links

Times and Time Zones

All times are in EDT time to prevent confusion due to time zone crossing. See the CTL16 flight status page for this flight to view local times or setup timezone preferences in your user account.

Time Position Orientation Groundspeed Altitude Reporting Facility
EDT Latitude Longitude Course Direction KTS MPH feet Rate Location/Type
08:41PM 39.4456 -84.3947 50° Northeast 173 199 2,100  Level Indianapolis Center
08:42PM 39.4658 -84.3631 50° Northeast 172 198 2,300 180 Climbing Indianapolis Center
08:43PM 39.4814 -84.3400 49° Northeast 168 193 2,400 120 Climbing Indianapolis Center
08:43PM 39.5006 -84.3150 45° Northeast 173 199 2,500 360 Climbing Indianapolis Center
08:44PM 39.5156 -84.2944 47° Northeast 171 197 2,800 720 Climbing Indianapolis Center
08:45PM 39.5486 -84.2531 44° Northeast 168 193 3,600 960 Climbing Indianapolis Center
08:45PM 39.5639 -84.2339 44° Northeast 131 151 4,300 960 Climbing Indianapolis Center
08:46PM 39.5739 -84.2208 45° Northeast 142 163 4,600 780 Climbing Indianapolis Center
08:46PM 39.5931 -84.1983 42° Northeast 128 147 5,200 900 Climbing Indianapolis Center
08:47PM 39.6206 -84.1569 49° Northeast 135 155 6,200 840 Climbing Indianapolis Center
08:48PM 39.6444 -84.1311 40° Northeast 135 155 6,900 780 Climbing Indianapolis Center
08:49PM 39.6714 -84.0953 46° Northeast 126 145 7,700 720 Climbing Indianapolis Center
08:51PM 39.6983 -84.0592 46° Northeast 129 148 8,500 660 Climbing Indianapolis Center
08:51PM 39.7222 -84.0306 43° Northeast 132 152 9,100 240 Climbing Indianapolis Center
08:52PM 39.7539 -83.9897 45° Northeast 181 208 9,000  Descending Indianapolis Center
08:53PM 39.7878 -83.9467 44° Northeast 185 213 9,100  Climbing Indianapolis Center
08:54PM 39.8025 -83.9286 43° Northeast 182 209 9,000  Descending Indianapolis Center
08:55PM 39.8467 -83.8717 45° Northeast 188 216 9,100  Climbing Indianapolis Center
08:56PM 39.8850 -83.8228 44° Northeast 190 219 9,100 -60 Level Indianapolis Center
08:57PM 39.9233 -83.7739 44° Northeast 190 219 9,000 -60 Descending Indianapolis Center
08:58PM 39.9619 -83.7228 45° Northeast 194 223 9,000  Level Indianapolis Center
08:59PM 40.0000 -83.6733 45° Northeast 191 220 9,000  Level Indianapolis Center
09:00PM 40.0386 -83.6239 44° Northeast 191 220 9,000  Level Indianapolis Center
09:01PM 40.0753 -83.5731 47° Northeast 188 216 9,000  Level Indianapolis Center
09:02PM 40.1119 -83.5225 47° Northeast 189 217 9,000  Level Indianapolis Center
09:03PM 40.1489 -83.4728 46° Northeast 187 215 9,000  Level Indianapolis Center
09:04PM 40.1869 -83.4228 45° Northeast 190 219 9,000  Level Indianapolis Center
09:05PM 40.2247 -83.3722 46° Northeast 191 220 9,000  Level Indianapolis Center
09:06PM 40.2636 -83.3236 44° Northeast 191 220 9,000  Level Indianapolis Center
09:07PM 40.3017 -83.2739 45° Northeast 191 220 9,000  Level Indianapolis Center
09:08PM 40.3408 -83.2242 44° Northeast 193 222 9,000  Level Indianapolis Center
09:09PM 40.3794 -83.1742 45° Northeast 192 221 9,100  Climbing Indianapolis Center
09:10PM 40.4189 -83.1247 44° Northeast 193 222 9,000 -60 Descending Indianapolis Center
09:11PM 40.4558 -83.0744 46° Northeast 190 219 9,000 -60 Level Indianapolis Center
09:12PM 40.4939 -83.0253 44° Northeast 188 216 8,900  Descending Indianapolis Center
09:13PM 40.5322 -82.9756 45° Northeast 189 217 9,000  Climbing Indianapolis Center
09:14PM 40.5711 -82.9264 44° Northeast 189 217 9,000 -60 Level Indianapolis Center
09:15PM 40.6097 -82.8786 43° Northeast 188 216 8,900  Descending Indianapolis Center
09:16PM 40.6469 -82.8289 45° Northeast 190 219 9,000  Climbing Indianapolis Center
09:17PM 40.6847 -82.7783 45° Northeast 191 220 9,000  Level Indianapolis Center
09:18PM 40.7239 -82.7294 43° Northeast 192 221 9,000  Level Indianapolis Center
09:19PM 40.7617 -82.6781 46° Northeast 192 221 9,000  Level Indianapolis Center
09:20PM 40.7989 -82.6250 47° Northeast 195 224 9,000  Level Indianapolis Center
09:21PM 40.8369 -82.5747 45° Northeast 191 220 9,000  Level Indianapolis Center
09:22PM 40.8753 -82.5247 45° Northeast 191 220 9,000  Level Indianapolis Center
09:23PM 40.9144 -82.4736 45° Northeast 187 215 9,000  Level Cleveland Center